sensor_id;sensor_type;location;lat;lon;timestamp;pressure;altitude;pressure_sealevel;temperature;humidity
76553;BME280;65395;53.168;18.156;2023-08-21T00:01:24;101577.41;;;20.52;83.47
76553;BME280;65395;53.168;18.156;2023-08-21T00:03:51;101582.52;;;20.49;82.78
76553;BME280;65395;53.168;18.156;2023-08-21T00:06:18;101582.39;;;20.47;83.25
76553;BME280;65395;53.168;18.156;2023-08-21T00:08:44;101577.52;;;20.44;83.00
76553;BME280;65395;53.168;18.156;2023-08-21T00:11:11;101570.84;;;20.41;83.37
76553;BME280;65395;53.168;18.156;2023-08-21T00:13:38;101565.14;;;20.36;83.56
76553;BME280;65395;53.168;18.156;2023-08-21T00:16:05;101559.42;;;20.30;83.26
76553;BME280;65395;53.168;18.156;2023-08-21T00:18:32;101557.35;;;20.26;83.46
76553;BME280;65395;53.168;18.156;2023-08-21T00:20:59;101559.67;;;20.23;83.60
76553;BME280;65395;53.168;18.156;2023-08-21T00:23:25;101555.20;;;20.18;83.27
76553;BME280;65395;53.168;18.156;2023-08-21T00:25:53;101556.55;;;20.18;83.33
76553;BME280;65395;53.168;18.156;2023-08-21T00:28:19;101553.55;;;20.17;83.13
76553;BME280;65395;53.168;18.156;2023-08-21T00:30:46;101556.11;;;20.16;83.09
76553;BME280;65395;53.168;18.156;2023-08-21T00:33:13;101558.31;;;20.16;83.47
76553;BME280;65395;53.168;18.156;2023-08-21T00:35:41;101559.85;;;20.16;83.22
76553;BME280;65395;53.168;18.156;2023-08-21T00:38:08;101561.66;;;20.15;83.07
76553;BME280;65395;53.168;18.156;2023-08-21T00:40:35;101563.02;;;20.14;82.89
76553;BME280;65395;53.168;18.156;2023-08-21T00:43:02;101563.43;;;20.13;83.02
76553;BME280;65395;53.168;18.156;2023-08-21T00:45:29;101560.47;;;20.10;82.78
76553;BME280;65395;53.168;18.156;2023-08-21T00:47:56;101562.54;;;20.06;82.84
76553;BME280;65395;53.168;18.156;2023-08-21T00:50:24;101568.98;;;20.02;82.73
76553;BME280;65395;53.168;18.156;2023-08-21T00:52:51;101571.67;;;19.97;82.80
76553;BME280;65395;53.168;18.156;2023-08-21T00:55:17;101580.09;;;19.91;83.05
76553;BME280;65395;53.168;18.156;2023-08-21T00:57:44;101576.89;;;19.85;82.76
76553;BME280;65395;53.168;18.156;2023-08-21T01:00:12;101575.52;;;19.80;82.51
76553;BME280;65395;53.168;18.156;2023-08-21T01:02:39;101577.12;;;19.75;82.76
76553;BME280;65395;53.168;18.156;2023-08-21T01:05:07;101571.64;;;19.72;82.58
76553;BME280;65395;53.168;18.156;2023-08-21T01:07:42;101570.55;;;19.69;82.57
76553;BME280;65395;53.168;18.156;2023-08-21T01:10:16;101573.58;;;19.67;82.47
76553;BME280;65395;53.168;18.156;2023-08-21T01:13:00;101576.47;;;19.64;82.53
76553;BME280;65395;53.168;18.156;2023-08-21T01:15:29;101578.11;;;19.62;82.38
76553;BME280;65395;53.168;18.156;2023-08-21T01:17:56;101576.80;;;19.60;82.36
76553;BME280;65395;53.168;18.156;2023-08-21T01:20:24;101575.19;;;19.53;82.51
76553;BME280;65395;53.168;18.156;2023-08-21T01:22:50;101571.58;;;19.47;82.41
76553;BME280;65395;53.168;18.156;2023-08-21T01:25:17;101573.55;;;19.41;82.24
76553;BME280;65395;53.168;18.156;2023-08-21T01:27:48;101573.27;;;19.34;82.44
76553;BME280;65395;53.168;18.156;2023-08-21T01:30:15;101574.73;;;19.26;82.19
76553;BME280;65395;53.168;18.156;2023-08-21T01:32:57;101575.84;;;19.20;82.38
76553;BME280;65395;53.168;18.156;2023-08-21T01:35:26;101579.64;;;19.12;81.91
76553;BME280;65395;53.168;18.156;2023-08-21T01:37:54;101575.95;;;19.04;82.24
76553;BME280;65395;53.168;18.156;2023-08-21T01:40:22;101570.06;;;18.96;82.46
76553;BME280;65395;53.168;18.156;2023-08-21T01:42:49;101570.38;;;18.91;82.48
76553;BME280;65395;53.168;18.156;2023-08-21T01:45:16;101568.39;;;18.85;82.21
76553;BME280;65395;53.168;18.156;2023-08-21T01:47:43;101572.11;;;18.81;82.21
76553;BME280;65395;53.168;18.156;2023-08-21T01:50:10;101571.70;;;18.79;82.13
76553;BME280;65395;53.168;18.156;2023-08-21T01:52:37;101573.54;;;18.75;81.97
76553;BME280;65395;53.168;18.156;2023-08-21T01:55:04;101566.97;;;18.70;82.03
76553;BME280;65395;53.168;18.156;2023-08-21T01:57:34;101568.42;;;18.67;82.00
76553;BME280;65395;53.168;18.156;2023-08-21T02:00:02;101573.61;;;18.61;81.76
76553;BME280;65395;53.168;18.156;2023-08-21T02:02:40;101575.28;;;18.54;81.97
76553;BME280;65395;53.168;18.156;2023-08-21T02:05:07;101574.90;;;18.46;81.69
76553;BME280;65395;53.168;18.156;2023-08-21T02:07:34;101571.52;;;18.39;82.04
76553;BME280;65395;53.168;18.156;2023-08-21T02:10:01;101576.58;;;18.34;81.96
76553;BME280;65395;53.168;18.156;2023-08-21T02:12:28;101577.58;;;18.24;81.99
76553;BME280;65395;53.168;18.156;2023-08-21T02:14:54;101580.17;;;18.18;82.27
76553;BME280;65395;53.168;18.156;2023-08-21T02:17:21;101578.63;;;18.12;82.29
76553;BME280;65395;53.168;18.156;2023-08-21T02:19:48;101578.98;;;18.08;82.32
76553;BME280;65395;53.168;18.156;2023-08-21T02:22:14;101578.19;;;18.02;82.62
76553;BME280;65395;53.168;18.156;2023-08-21T02:24:41;101576.89;;;17.99;82.49
76553;BME280;65395;53.168;18.156;2023-08-21T02:27:08;101578.33;;;17.92;81.86
76553;BME280;65395;53.168;18.156;2023-08-21T02:29:35;101581.58;;;17.85;82.15
76553;BME280;65395;53.168;18.156;2023-08-21T02:32:03;101582.06;;;17.79;82.02
76553;BME280;65395;53.168;18.156;2023-08-21T02:34:30;101584.30;;;17.74;82.18
76553;BME280;65395;53.168;18.156;2023-08-21T02:36:57;101584.58;;;17.68;82.15
76553;BME280;65395;53.168;18.156;2023-08-21T02:39:24;101584.67;;;17.61;82.12
76553;BME280;65395;53.168;18.156;2023-08-21T02:41:51;101581.80;;;17.55;82.36
76553;BME280;65395;53.168;18.156;2023-08-21T02:44:18;101580.32;;;17.49;82.83
76553;BME280;65395;53.168;18.156;2023-08-21T02:46:45;101580.67;;;17.46;83.13
76553;BME280;65395;53.168;18.156;2023-08-21T02:49:11;101583.86;;;17.42;82.61
76553;BME280;65395;53.168;18.156;2023-08-21T02:51:40;101592.14;;;17.37;83.19
76553;BME280;65395;53.168;18.156;2023-08-21T02:54:06;101589.41;;;17.34;83.21
76553;BME280;65395;53.168;18.156;2023-08-21T02:56:33;101584.09;;;17.32;83.22
76553;BME280;65395;53.168;18.156;2023-08-21T02:59:00;101583.17;;;17.30;82.94
76553;BME280;65395;53.168;18.156;2023-08-21T03:01:28;101579.16;;;17.26;82.91
76553;BME280;65395;53.168;18.156;2023-08-21T03:03:54;101577.77;;;17.21;82.66
76553;BME280;65395;53.168;18.156;2023-08-21T03:06:21;101573.60;;;17.15;82.75
76553;BME280;65395;53.168;18.156;2023-08-21T03:08:48;101576.41;;;17.09;83.27
76553;BME280;65395;53.168;18.156;2023-08-21T03:11:14;101573.95;;;17.06;83.43
76553;BME280;65395;53.168;18.156;2023-08-21T03:13:41;101580.80;;;17.02;83.34
76553;BME280;65395;53.168;18.156;2023-08-21T03:16:08;101575.64;;;16.98;83.47
76553;BME280;65395;53.168;18.156;2023-08-21T03:18:55;101573.10;;;16.95;83.67
76553;BME280;65395;53.168;18.156;2023-08-21T03:21:23;101576.02;;;16.89;83.26
76553;BME280;65395;53.168;18.156;2023-08-21T03:23:54;101574.05;;;16.83;83.37
76553;BME280;65395;53.168;18.156;2023-08-21T03:26:21;101579.53;;;16.79;83.37
76553;BME280;65395;53.168;18.156;2023-08-21T03:28:48;101587.14;;;16.73;82.99
76553;BME280;65395;53.168;18.156;2023-08-21T03:31:15;101587.35;;;16.63;83.17
76553;BME280;65395;53.168;18.156;2023-08-21T03:33:42;101594.44;;;16.57;83.42
76553;BME280;65395;53.168;18.156;2023-08-21T03:36:09;101600.81;;;16.49;83.40
76553;BME280;65395;53.168;18.156;2023-08-21T03:38:36;101602.20;;;16.44;84.04
76553;BME280;65395;53.168;18.156;2023-08-21T03:41:03;101604.61;;;16.41;84.13
76553;BME280;65395;53.168;18.156;2023-08-21T03:43:32;101609.20;;;16.39;84.12
76553;BME280;65395;53.168;18.156;2023-08-21T03:45:59;101604.46;;;16.36;83.82
76553;BME280;65395;53.168;18.156;2023-08-21T03:48:26;101599.46;;;16.33;84.24
76553;BME280;65395;53.168;18.156;2023-08-21T03:50:53;101607.24;;;16.31;83.98
76553;BME280;65395;53.168;18.156;2023-08-21T03:53:20;101606.64;;;16.28;84.15
76553;BME280;65395;53.168;18.156;2023-08-21T03:55:46;101602.60;;;16.26;83.94
76553;BME280;65395;53.168;18.156;2023-08-21T03:58:13;101600.58;;;16.24;83.59
76553;BME280;65395;53.168;18.156;2023-08-21T04:00:40;101599.44;;;16.20;83.49
76553;BME280;65395;53.168;18.156;2023-08-21T04:03:07;101597.34;;;16.13;83.29
76553;BME280;65395;53.168;18.156;2023-08-21T04:05:34;101589.30;;;16.09;83.45
76553;BME280;65395;53.168;18.156;2023-08-21T04:08:00;101581.67;;;16.08;83.78
76553;BME280;65395;53.168;18.156;2023-08-21T04:10:27;101585.55;;;16.05;83.67
76553;BME280;65395;53.168;18.156;2023-08-21T04:12:56;101589.07;;;16.02;83.69
76553;BME280;65395;53.168;18.156;2023-08-21T04:15:23;101596.60;;;16.01;83.67
76553;BME280;65395;53.168;18.156;2023-08-21T04:17:49;101595.96;;;16.03;83.83
76553;BME280;65395;53.168;18.156;2023-08-21T04:20:16;101599.54;;;16.08;84.10
76553;BME280;65395;53.168;18.156;2023-08-21T04:22:43;101600.31;;;16.12;83.94
76553;BME280;65395;53.168;18.156;2023-08-21T04:25:09;101599.52;;;16.14;83.99
76553;BME280;65395;53.168;18.156;2023-08-21T04:27:37;101598.38;;;16.15;83.89
76553;BME280;65395;53.168;18.156;2023-08-21T04:30:05;101599.56;;;16.16;84.16
76553;BME280;65395;53.168;18.156;2023-08-21T04:32:32;101606.86;;;16.21;84.11
76553;BME280;65395;53.168;18.156;2023-08-21T04:34:59;101598.34;;;16.25;84.24
76553;BME280;65395;53.168;18.156;2023-08-21T04:37:25;101590.29;;;16.29;84.40
76553;BME280;65395;53.168;18.156;2023-08-21T04:39:54;101590.15;;;16.35;84.36
76553;BME280;65395;53.168;18.156;2023-08-21T04:42:21;101601.71;;;16.39;84.35
76553;BME280;65395;53.168;18.156;2023-08-21T04:44:48;101607.17;;;16.43;84.44
76553;BME280;65395;53.168;18.156;2023-08-21T04:47:25;101605.23;;;16.47;84.44
76553;BME280;65395;53.168;18.156;2023-08-21T04:49:55;101604.20;;;16.51;84.37
76553;BME280;65395;53.168;18.156;2023-08-21T04:52:23;101600.95;;;16.58;84.30
76553;BME280;65395;53.168;18.156;2023-08-21T04:54:51;101604.75;;;16.62;84.25
76553;BME280;65395;53.168;18.156;2023-08-21T04:57:19;101608.36;;;16.67;84.20
76553;BME280;65395;53.168;18.156;2023-08-21T04:59:47;101606.55;;;16.73;84.18
76553;BME280;65395;53.168;18.156;2023-08-21T05:02:15;101603.75;;;16.79;84.09
76553;BME280;65395;53.168;18.156;2023-08-21T05:04:41;101611.52;;;16.84;83.87
76553;BME280;65395;53.168;18.156;2023-08-21T05:07:09;101608.73;;;16.87;83.74
76553;BME280;65395;53.168;18.156;2023-08-21T05:09:35;101611.59;;;16.90;83.58
76553;BME280;65395;53.168;18.156;2023-08-21T05:12:04;101610.77;;;16.93;83.43
76553;BME280;65395;53.168;18.156;2023-08-21T05:14:31;101619.41;;;16.97;83.27
76553;BME280;65395;53.168;18.156;2023-08-21T05:16:57;101621.02;;;17.01;83.29
76553;BME280;65395;53.168;18.156;2023-08-21T05:19:25;101621.29;;;17.05;83.12
76553;BME280;65395;53.168;18.156;2023-08-21T05:21:52;101626.83;;;17.09;83.03
76553;BME280;65395;53.168;18.156;2023-08-21T05:24:19;101626.09;;;17.13;82.89
76553;BME280;65395;53.168;18.156;2023-08-21T05:26:50;101625.88;;;17.17;82.69
76553;BME280;65395;53.168;18.156;2023-08-21T05:29:16;101625.21;;;17.23;82.61
76553;BME280;65395;53.168;18.156;2023-08-21T05:31:43;101629.25;;;17.29;82.45
76553;BME280;65395;53.168;18.156;2023-08-21T05:34:10;101634.65;;;17.35;82.26
76553;BME280;65395;53.168;18.156;2023-08-21T05:36:37;101637.25;;;17.39;81.96
76553;BME280;65395;53.168;18.156;2023-08-21T05:39:05;101642.52;;;17.44;81.71
76553;BME280;65395;53.168;18.156;2023-08-21T05:41:32;101643.67;;;17.49;81.52
76553;BME280;65395;53.168;18.156;2023-08-21T05:43:59;101646.09;;;17.55;81.67
76553;BME280;65395;53.168;18.156;2023-08-21T05:46:26;101651.21;;;17.61;81.18
76553;BME280;65395;53.168;18.156;2023-08-21T05:48:53;101651.52;;;17.68;80.87
76553;BME280;65395;53.168;18.156;2023-08-21T05:51:20;101652.48;;;17.73;80.71
76553;BME280;65395;53.168;18.156;2023-08-21T05:53:47;101650.35;;;17.79;80.78
76553;BME280;65395;53.168;18.156;2023-08-21T05:56:14;101647.82;;;17.86;80.56
76553;BME280;65395;53.168;18.156;2023-08-21T05:58:40;101650.45;;;17.93;80.31
76553;BME280;65395;53.168;18.156;2023-08-21T06:01:07;101652.39;;;18.02;80.56
76553;BME280;65395;53.168;18.156;2023-08-21T06:03:34;101658.84;;;18.11;80.09
76553;BME280;65395;53.168;18.156;2023-08-21T06:06:11;101651.70;;;18.19;79.51
76553;BME280;65395;53.168;18.156;2023-08-21T06:08:38;101654.92;;;18.26;79.10
76553;BME280;65395;53.168;18.156;2023-08-21T06:11:04;101657.70;;;18.34;78.92
76553;BME280;65395;53.168;18.156;2023-08-21T06:13:31;101660.91;;;18.41;78.45
76553;BME280;65395;53.168;18.156;2023-08-21T06:15:58;101667.46;;;18.50;78.59
76553;BME280;65395;53.168;18.156;2023-08-21T06:18:25;101674.34;;;18.58;77.98
76553;BME280;65395;53.168;18.156;2023-08-21T06:20:52;101672.25;;;18.66;77.69
76553;BME280;65395;53.168;18.156;2023-08-21T06:23:20;101670.65;;;18.71;77.00
76553;BME280;65395;53.168;18.156;2023-08-21T06:25:48;101670.30;;;18.75;76.59
76553;BME280;65395;53.168;18.156;2023-08-21T06:28:16;101669.67;;;18.80;76.36
76553;BME280;65395;53.168;18.156;2023-08-21T06:30:43;101676.10;;;18.85;76.72
76553;BME280;65395;53.168;18.156;2023-08-21T06:33:11;101671.26;;;18.91;76.39
76553;BME280;65395;53.168;18.156;2023-08-21T06:35:38;101672.40;;;18.98;75.93
76553;BME280;65395;53.168;18.156;2023-08-21T06:38:05;101669.11;;;19.05;75.86
76553;BME280;65395;53.168;18.156;2023-08-21T06:40:33;101668.79;;;19.12;74.59
76553;BME280;65395;53.168;18.156;2023-08-21T06:42:59;101666.17;;;19.17;74.61
76553;BME280;65395;53.168;18.156;2023-08-21T06:45:29;101667.09;;;19.23;74.17
76553;BME280;65395;53.168;18.156;2023-08-21T06:47:57;101671.83;;;19.28;74.26
76553;BME280;65395;53.168;18.156;2023-08-21T06:50:24;101677.13;;;19.34;73.92
76553;BME280;65395;53.168;18.156;2023-08-21T06:52:51;101678.65;;;19.38;74.22
76553;BME280;65395;53.168;18.156;2023-08-21T06:55:18;101670.16;;;19.46;74.48
76553;BME280;65395;53.168;18.156;2023-08-21T06:57:45;101676.77;;;19.52;73.15
76553;BME280;65395;53.168;18.156;2023-08-21T07:00:12;101668.77;;;19.58;73.10
76553;BME280;65395;53.168;18.156;2023-08-21T07:02:39;101664.59;;;19.64;73.15
76553;BME280;65395;53.168;18.156;2023-08-21T07:05:05;101660.14;;;19.71;72.06
76553;BME280;65395;53.168;18.156;2023-08-21T07:07:32;101657.84;;;19.75;72.09
76553;BME280;65395;53.168;18.156;2023-08-21T07:09:59;101655.67;;;19.80;71.40
76553;BME280;65395;53.168;18.156;2023-08-21T07:12:26;101655.39;;;19.85;70.65
76553;BME280;65395;53.168;18.156;2023-08-21T07:14:52;101652.91;;;19.88;70.62
76553;BME280;65395;53.168;18.156;2023-08-21T07:17:19;101654.85;;;19.90;70.99
76553;BME280;65395;53.168;18.156;2023-08-21T07:19:46;101653.34;;;19.93;70.47
76553;BME280;65395;53.168;18.156;2023-08-21T07:22:13;101658.70;;;19.99;70.30
76553;BME280;65395;53.168;18.156;2023-08-21T07:24:39;101664.85;;;20.08;70.80
76553;BME280;65395;53.168;18.156;2023-08-21T07:27:06;101667.48;;;20.16;70.38
76553;BME280;65395;53.168;18.156;2023-08-21T07:29:32;101669.37;;;20.22;69.29
76553;BME280;65395;53.168;18.156;2023-08-21T07:32:01;101672.83;;;20.27;69.47
76553;BME280;65395;53.168;18.156;2023-08-21T07:34:28;101675.60;;;20.33;69.83
76553;BME280;65395;53.168;18.156;2023-08-21T07:36:55;101674.58;;;20.40;69.41
76553;BME280;65395;53.168;18.156;2023-08-21T07:39:21;101672.22;;;20.47;69.42
76553;BME280;65395;53.168;18.156;2023-08-21T07:41:48;101665.40;;;20.53;68.90
76553;BME280;65395;53.168;18.156;2023-08-21T07:44:14;101663.73;;;20.58;69.06
76553;BME280;65395;53.168;18.156;2023-08-21T07:46:41;101664.88;;;20.64;68.47
76553;BME280;65395;53.168;18.156;2023-08-21T07:49:08;101669.04;;;20.71;68.35
76553;BME280;65395;53.168;18.156;2023-08-21T07:51:35;101671.55;;;20.79;68.25
76553;BME280;65395;53.168;18.156;2023-08-21T07:54:01;101674.16;;;20.88;67.61
76553;BME280;65395;53.168;18.156;2023-08-21T07:56:29;101672.70;;;20.94;67.06
76553;BME280;65395;53.168;18.156;2023-08-21T07:58:55;101666.41;;;20.98;66.55
76553;BME280;65395;53.168;18.156;2023-08-21T08:01:22;101667.45;;;21.05;66.79
76553;BME280;65395;53.168;18.156;2023-08-21T08:03:48;101677.16;;;21.15;65.71
76553;BME280;65395;53.168;18.156;2023-08-21T08:06:15;101670.70;;;21.21;64.29
76553;BME280;65395;53.168;18.156;2023-08-21T08:08:42;101668.64;;;21.25;63.49
76553;BME280;65395;53.168;18.156;2023-08-21T08:11:09;101669.29;;;21.31;62.36
76553;BME280;65395;53.168;18.156;2023-08-21T08:13:36;101667.46;;;21.37;62.95
76553;BME280;65395;53.168;18.156;2023-08-21T08:16:03;101670.20;;;21.43;62.40
76553;BME280;65395;53.168;18.156;2023-08-21T08:18:30;101670.40;;;21.51;62.77
76553;BME280;65395;53.168;18.156;2023-08-21T08:20:56;101669.52;;;21.59;62.67
76553;BME280;65395;53.168;18.156;2023-08-21T08:23:23;101668.17;;;21.67;62.81
76553;BME280;65395;53.168;18.156;2023-08-21T08:25:50;101670.35;;;21.75;62.77
76553;BME280;65395;53.168;18.156;2023-08-21T08:28:17;101667.30;;;21.85;62.11
76553;BME280;65395;53.168;18.156;2023-08-21T08:30:45;101665.91;;;21.91;61.41
76553;BME280;65395;53.168;18.156;2023-08-21T08:33:11;101665.53;;;21.96;60.92
76553;BME280;65395;53.168;18.156;2023-08-21T08:35:38;101668.30;;;22.01;61.33
76553;BME280;65395;53.168;18.156;2023-08-21T08:38:07;101663.92;;;22.07;61.12
76553;BME280;65395;53.168;18.156;2023-08-21T08:40:36;101668.71;;;22.13;60.76
76553;BME280;65395;53.168;18.156;2023-08-21T08:43:04;101667.29;;;22.19;60.85
76553;BME280;65395;53.168;18.156;2023-08-21T08:45:32;101661.06;;;22.26;60.96
76553;BME280;65395;53.168;18.156;2023-08-21T08:48:00;101663.68;;;22.34;60.65
76553;BME280;65395;53.168;18.156;2023-08-21T08:50:30;101659.34;;;22.43;59.98
76553;BME280;65395;53.168;18.156;2023-08-21T08:52:58;101658.36;;;22.51;58.61
76553;BME280;65395;53.168;18.156;2023-08-21T08:55:25;101657.30;;;22.62;58.91
76553;BME280;65395;53.168;18.156;2023-08-21T08:57:53;101659.89;;;22.69;58.02
76553;BME280;65395;53.168;18.156;2023-08-21T09:00:20;101657.44;;;22.75;57.52
76553;BME280;65395;53.168;18.156;2023-08-21T09:02:48;101658.17;;;22.82;58.07
76553;BME280;65395;53.168;18.156;2023-08-21T09:05:14;101655.06;;;22.89;57.16
76553;BME280;65395;53.168;18.156;2023-08-21T09:07:42;101649.36;;;22.94;57.36
76553;BME280;65395;53.168;18.156;2023-08-21T09:10:16;101652.14;;;23.00;56.95
76553;BME280;65395;53.168;18.156;2023-08-21T09:12:45;101653.61;;;23.06;56.57
76553;BME280;65395;53.168;18.156;2023-08-21T09:15:12;101653.89;;;23.14;56.24
76553;BME280;65395;53.168;18.156;2023-08-21T09:17:39;101651.67;;;23.20;56.52
76553;BME280;65395;53.168;18.156;2023-08-21T09:20:07;101648.94;;;23.27;56.38
76553;BME280;65395;53.168;18.156;2023-08-21T09:22:36;101646.83;;;23.34;53.59
76553;BME280;65395;53.168;18.156;2023-08-21T09:25:05;101644.91;;;23.43;53.56
76553;BME280;65395;53.168;18.156;2023-08-21T09:27:34;101643.39;;;23.54;53.44
76553;BME280;65395;53.168;18.156;2023-08-21T09:30:04;101648.77;;;23.61;52.33
76553;BME280;65395;53.168;18.156;2023-08-21T09:32:31;101640.02;;;23.68;51.96
76553;BME280;65395;53.168;18.156;2023-08-21T09:35:17;101635.47;;;23.73;51.09
76553;BME280;65395;53.168;18.156;2023-08-21T09:37:46;101633.65;;;23.78;50.52
76553;BME280;65395;53.168;18.156;2023-08-21T09:40:15;101626.41;;;23.84;50.26
76553;BME280;65395;53.168;18.156;2023-08-21T09:42:42;101627.89;;;23.92;50.36
76553;BME280;65395;53.168;18.156;2023-08-21T09:45:08;101630.37;;;23.99;50.90
76553;BME280;65395;53.168;18.156;2023-08-21T09:47:36;101626.45;;;24.06;49.59
76553;BME280;65395;53.168;18.156;2023-08-21T09:50:05;101625.27;;;24.11;50.19
76553;BME280;65395;53.168;18.156;2023-08-21T09:52:32;101624.20;;;24.18;49.32
76553;BME280;65395;53.168;18.156;2023-08-21T09:55:00;101622.21;;;24.26;48.52
76553;BME280;65395;53.168;18.156;2023-08-21T09:57:29;101622.85;;;24.34;46.30
76553;BME280;65395;53.168;18.156;2023-08-21T09:59:59;101619.60;;;24.41;47.22
76553;BME280;65395;53.168;18.156;2023-08-21T10:02:26;101624.29;;;24.49;45.58
76553;BME280;65395;53.168;18.156;2023-08-21T10:04:54;101615.40;;;24.59;45.08
76553;BME280;65395;53.168;18.156;2023-08-21T10:07:23;101618.36;;;24.69;44.72
76553;BME280;65395;53.168;18.156;2023-08-21T10:09:53;101618.05;;;24.79;44.28
76553;BME280;65395;53.168;18.156;2023-08-21T10:12:20;101617.52;;;24.88;44.40
76553;BME280;65395;53.168;18.156;2023-08-21T10:14:48;101618.22;;;24.96;42.58
76553;BME280;65395;53.168;18.156;2023-08-21T10:17:15;101615.50;;;25.05;42.29
76553;BME280;65395;53.168;18.156;2023-08-21T10:19:42;101615.85;;;25.12;44.60
76553;BME280;65395;53.168;18.156;2023-08-21T10:22:08;101617.38;;;25.25;44.96
76553;BME280;65395;53.168;18.156;2023-08-21T10:24:36;101613.88;;;25.37;45.07
76553;BME280;65395;53.168;18.156;2023-08-21T10:27:06;101611.27;;;25.50;45.26
76553;BME280;65395;53.168;18.156;2023-08-21T10:29:33;101611.70;;;25.63;45.65
76553;BME280;65395;53.168;18.156;2023-08-21T10:32:01;101607.98;;;25.73;44.72
76553;BME280;65395;53.168;18.156;2023-08-21T10:34:33;101607.45;;;25.77;44.22
76553;BME280;65395;53.168;18.156;2023-08-21T10:37:05;101608.55;;;25.79;44.53
76553;BME280;65395;53.168;18.156;2023-08-21T10:39:33;101603.48;;;25.88;44.31
76553;BME280;65395;53.168;18.156;2023-08-21T10:42:05;101604.44;;;26.00;43.38
76553;BME280;65395;53.168;18.156;2023-08-21T10:44:48;101603.81;;;26.06;42.80
76553;BME280;65395;53.168;18.156;2023-08-21T10:47:19;101603.27;;;26.15;43.37
76553;BME280;65395;53.168;18.156;2023-08-21T10:49:48;101597.58;;;26.28;43.42
76553;BME280;65395;53.168;18.156;2023-08-21T10:52:21;101599.66;;;26.41;43.11
76553;BME280;65395;53.168;18.156;2023-08-21T10:54:50;101603.71;;;26.59;43.46
76553;BME280;65395;53.168;18.156;2023-08-21T10:57:18;101603.57;;;26.67;43.49
76553;BME280;65395;53.168;18.156;2023-08-21T10:59:57;101609.45;;;26.61;42.36
76553;BME280;65395;53.168;18.156;2023-08-21T11:02:27;101600.29;;;26.43;42.84
76553;BME280;65395;53.168;18.156;2023-08-21T11:04:56;101598.84;;;26.37;42.93
76553;BME280;65395;53.168;18.156;2023-08-21T11:07:25;101598.33;;;26.47;42.76
76553;BME280;65395;53.168;18.156;2023-08-21T11:09:52;101602.07;;;26.63;43.54
76553;BME280;65395;53.168;18.156;2023-08-21T11:12:21;101604.80;;;26.78;42.90
76553;BME280;65395;53.168;18.156;2023-08-21T11:14:48;101608.42;;;26.92;42.63
76553;BME280;65395;53.168;18.156;2023-08-21T11:17:15;101611.54;;;26.95;42.86
76553;BME280;65395;53.168;18.156;2023-08-21T11:19:42;101607.02;;;27.00;42.28
76553;BME280;65395;53.168;18.156;2023-08-21T11:22:11;101598.87;;;27.04;43.24
76553;BME280;65395;53.168;18.156;2023-08-21T11:24:41;101607.73;;;27.20;42.79
76553;BME280;65395;53.168;18.156;2023-08-21T11:27:09;101601.59;;;27.25;42.32
76553;BME280;65395;53.168;18.156;2023-08-21T11:29:38;101603.80;;;27.20;42.45
76553;BME280;65395;53.168;18.156;2023-08-21T11:32:10;101599.23;;;27.11;42.71
76553;BME280;65395;53.168;18.156;2023-08-21T11:34:38;101600.73;;;26.97;43.18
76553;BME280;65395;53.168;18.156;2023-08-21T11:37:05;101599.10;;;26.96;43.62
76553;BME280;65395;53.168;18.156;2023-08-21T11:39:47;101601.89;;;27.04;43.62
76553;BME280;65395;53.168;18.156;2023-08-21T11:42:15;101600.89;;;27.14;42.71
76553;BME280;65395;53.168;18.156;2023-08-21T11:44:46;101602.36;;;27.14;42.90
76553;BME280;65395;53.168;18.156;2023-08-21T11:47:14;101599.79;;;27.13;43.02
76553;BME280;65395;53.168;18.156;2023-08-21T11:49:42;101592.67;;;27.12;43.36
76553;BME280;65395;53.168;18.156;2023-08-21T11:52:10;101599.33;;;27.21;43.35
76553;BME280;65395;53.168;18.156;2023-08-21T11:54:38;101597.58;;;27.41;43.19
76553;BME280;65395;53.168;18.156;2023-08-21T11:57:08;101593.52;;;27.61;42.97
76553;BME280;65395;53.168;18.156;2023-08-21T11:59:35;101591.48;;;27.79;42.74
76553;BME280;65395;53.168;18.156;2023-08-21T12:02:09;101588.52;;;28.03;42.04
76553;BME280;65395;53.168;18.156;2023-08-21T12:04:36;101580.11;;;28.29;42.17
76553;BME280;65395;53.168;18.156;2023-08-21T12:07:03;101578.29;;;28.40;42.40
76553;BME280;65395;53.168;18.156;2023-08-21T12:09:31;101573.91;;;28.56;42.14
76553;BME280;65395;53.168;18.156;2023-08-21T12:11:58;101577.94;;;28.75;42.08
76553;BME280;65395;53.168;18.156;2023-08-21T12:14:25;101577.69;;;28.77;41.93
76553;BME280;65395;53.168;18.156;2023-08-21T12:16:51;101582.65;;;28.72;41.55
76553;BME280;65395;53.168;18.156;2023-08-21T12:19:18;101588.91;;;28.62;41.50
76553;BME280;65395;53.168;18.156;2023-08-21T12:21:46;101583.80;;;28.42;41.96
76553;BME280;65395;53.168;18.156;2023-08-21T12:24:12;101580.46;;;28.19;42.03
76553;BME280;65395;53.168;18.156;2023-08-21T12:26:39;101583.15;;;27.98;42.11
76553;BME280;65395;53.168;18.156;2023-08-21T12:29:06;101585.35;;;27.77;42.48
76553;BME280;65395;53.168;18.156;2023-08-21T12:31:32;101575.81;;;27.74;42.35
76553;BME280;65395;53.168;18.156;2023-08-21T12:33:59;101576.63;;;27.66;42.46
76553;BME280;65395;53.168;18.156;2023-08-21T12:36:26;101578.52;;;27.63;42.91
76553;BME280;65395;53.168;18.156;2023-08-21T12:38:52;101576.08;;;27.67;42.68
76553;BME280;65395;53.168;18.156;2023-08-21T12:41:19;101576.54;;;27.64;42.80
76553;BME280;65395;53.168;18.156;2023-08-21T12:43:45;101570.20;;;27.46;42.94